sensor_id;sensor_type;location;lat;lon;timestamp;temperature;humidity
3312;DHT22;1668;49.648;8.570;2022-12-20T00:01:31;0.80;99.90
3312;DHT22;1668;49.648;8.570;2022-12-20T00:04:00;0.80;99.90
3312;DHT22;1668;49.648;8.570;2022-12-20T00:06:28;0.80;99.90
3312;DHT22;1668;49.648;8.570;2022-12-20T00:08:56;0.80;99.90
3312;DHT22;1668;49.648;8.570;2022-12-20T00:11:24;0.80;99.90
3312;DHT22;1668;49.648;8.570;2022-12-20T00:13:51;0.80;99.90
3312;DHT22;1668;49.648;8.570;2022-12-20T00:16:20;0.80;99.90
3312;DHT22;1668;49.648;8.570;2022-12-20T00:18:50;0.80;99.90
3312;DHT22;1668;49.648;8.570;2022-12-20T00:21:17;0.80;99.90
3312;DHT22;1668;49.648;8.570;2022-12-20T00:23:44;0.80;99.90
3312;DHT22;1668;49.648;8.570;2022-12-20T00:26:13;0.80;99.90
3312;DHT22;1668;49.648;8.570;2022-12-20T00:28:41;0.80;99.90
3312;DHT22;1668;49.648;8.570;2022-12-20T00:31:10;0.80;99.90
3312;DHT22;1668;49.648;8.570;2022-12-20T00:33:39;0.80;99.90
3312;DHT22;1668;49.648;8.570;2022-12-20T00:36:07;0.80;99.90
3312;DHT22;1668;49.648;8.570;2022-12-20T00:38:34;0.80;99.90
3312;DHT22;1668;49.648;8.570;2022-12-20T00:41:03;0.80;99.90
3312;DHT22;1668;49.648;8.570;2022-12-20T00:43:31;0.90;99.90
3312;DHT22;1668;49.648;8.570;2022-12-20T00:45:59;0.90;99.90
3312;DHT22;1668;49.648;8.570;2022-12-20T00:48:26;0.90;99.90
3312;DHT22;1668;49.648;8.570;2022-12-20T00:50:58;0.90;99.90
3312;DHT22;1668;49.648;8.570;2022-12-20T00:53:26;0.90;99.90
3312;DHT22;1668;49.648;8.570;2022-12-20T00:55:53;0.90;99.90
3312;DHT22;1668;49.648;8.570;2022-12-20T00:58:20;0.90;99.90
3312;DHT22;1668;49.648;8.570;2022-12-20T01:00:47;0.90;99.90
3312;DHT22;1668;49.648;8.570;2022-12-20T01:03:15;0.90;99.90
3312;DHT22;1668;49.648;8.570;2022-12-20T01:05:49;0.90;99.90
3312;DHT22;1668;49.648;8.570;2022-12-20T01:08:19;0.90;99.90
3312;DHT22;1668;49.648;8.570;2022-12-20T01:10:46;0.90;99.90
3312;DHT22;1668;49.648;8.570;2022-12-20T01:13:13;0.90;99.90
3312;DHT22;1668;49.648;8.570;2022-12-20T01:15:40;0.90;99.90
3312;DHT22;1668;49.648;8.570;2022-12-20T01:18:07;0.90;99.90
3312;DHT22;1668;49.648;8.570;2022-12-20T01:20:34;0.90;99.90
3312;DHT22;1668;49.648;8.570;2022-12-20T01:23:01;0.90;99.90
3312;DHT22;1668;49.648;8.570;2022-12-20T01:25:29;0.90;99.90
3312;DHT22;1668;49.648;8.570;2022-12-20T01:27:56;0.80;99.90
3312;DHT22;1668;49.648;8.570;2022-12-20T01:30:23;0.80;99.90
3312;DHT22;1668;49.648;8.570;2022-12-20T01:32:50;0.80;99.90
3312;DHT22;1668;49.648;8.570;2022-12-20T01:35:17;0.80;99.90
3312;DHT22;1668;49.648;8.570;2022-12-20T01:37:44;0.80;99.90
3312;DHT22;1668;49.648;8.570;2022-12-20T01:40:11;0.80;99.90
3312;DHT22;1668;49.648;8.570;2022-12-20T01:42:40;0.80;99.90
3312;DHT22;1668;49.648;8.570;2022-12-20T01:45:13;0.80;99.90
3312;DHT22;1668;49.648;8.570;2022-12-20T01:47:44;0.80;99.90
3312;DHT22;1668;49.648;8.570;2022-12-20T01:50:12;0.80;99.90
3312;DHT22;1668;49.648;8.570;2022-12-20T01:52:41;0.80;99.90
3312;DHT22;1668;49.648;8.570;2022-12-20T01:55:12;0.80;99.90
3312;DHT22;1668;49.648;8.570;2022-12-20T01:57:45;0.80;99.90
3312;DHT22;1668;49.648;8.570;2022-12-20T02:00:14;0.80;99.90
3312;DHT22;1668;49.648;8.570;2022-12-20T02:02:43;0.80;99.90
3312;DHT22;1668;49.648;8.570;2022-12-20T02:05:10;0.80;99.90
3312;DHT22;1668;49.648;8.570;2022-12-20T02:07:40;0.80;99.90
3312;DHT22;1668;49.648;8.570;2022-12-20T02:10:09;0.70;99.90
3312;DHT22;1668;49.648;8.570;2022-12-20T02:12:39;0.80;99.90
3312;DHT22;1668;49.648;8.570;2022-12-20T02:15:31;0.80;99.90
3312;DHT22;1668;49.648;8.570;2022-12-20T02:18:12;0.80;99.90
3312;DHT22;1668;49.648;8.570;2022-12-20T02:20:53;0.80;99.90
3312;DHT22;1668;49.648;8.570;2022-12-20T02:29:29;0.70;99.90
3312;DHT22;1668;49.648;8.570;2022-12-20T02:32:03;0.70;99.90
3312;DHT22;1668;49.648;8.570;2022-12-20T02:34:35;0.70;99.90
3312;DHT22;1668;49.648;8.570;2022-12-20T02:37:03;0.70;99.90
3312;DHT22;1668;49.648;8.570;2022-12-20T02:39:31;0.70;99.90
3312;DHT22;1668;49.648;8.570;2022-12-20T02:42:01;0.70;99.90
3312;DHT22;1668;49.648;8.570;2022-12-20T02:44:31;0.70;99.90
3312;DHT22;1668;49.648;8.570;2022-12-20T02:47:21;0.70;99.90
3312;DHT22;1668;49.648;8.570;2022-12-20T02:49:53;0.70;99.90
3312;DHT22;1668;49.648;8.570;2022-12-20T02:52:23;0.80;99.90
3312;DHT22;1668;49.648;8.570;2022-12-20T02:54:51;0.80;99.90
3312;DHT22;1668;49.648;8.570;2022-12-20T02:57:21;0.70;99.90
3312;DHT22;1668;49.648;8.570;2022-12-20T02:59:57;0.80;99.90
3312;DHT22;1668;49.648;8.570;2022-12-20T03:02:29;0.80;99.90
3312;DHT22;1668;49.648;8.570;2022-12-20T03:05:20;0.80;99.90
3312;DHT22;1668;49.648;8.570;2022-12-20T03:07:47;0.80;99.90
3312;DHT22;1668;49.648;8.570;2022-12-20T03:10:14;0.80;99.90
3312;DHT22;1668;49.648;8.570;2022-12-20T03:12:41;0.80;99.90
3312;DHT22;1668;49.648;8.570;2022-12-20T03:15:09;0.80;99.90
3312;DHT22;1668;49.648;8.570;2022-12-20T03:17:37;0.80;99.90
3312;DHT22;1668;49.648;8.570;2022-12-20T03:20:05;0.80;99.90
3312;DHT22;1668;49.648;8.570;2022-12-20T03:22:33;0.80;99.90
3312;DHT22;1668;49.648;8.570;2022-12-20T03:25:00;0.80;99.90
3312;DHT22;1668;49.648;8.570;2022-12-20T03:27:27;0.80;99.90
3312;DHT22;1668;49.648;8.570;2022-12-20T03:29:54;0.80;99.90
3312;DHT22;1668;49.648;8.570;2022-12-20T03:32:21;0.80;99.90
3312;DHT22;1668;49.648;8.570;2022-12-20T03:34:49;0.90;99.90
3312;DHT22;1668;49.648;8.570;2022-12-20T03:37:16;0.90;99.90
3312;DHT22;1668;49.648;8.570;2022-12-20T03:39:43;0.90;99.90
3312;DHT22;1668;49.648;8.570;2022-12-20T03:42:10;0.90;99.90
3312;DHT22;1668;49.648;8.570;2022-12-20T03:44:36;0.90;99.90
3312;DHT22;1668;49.648;8.570;2022-12-20T03:47:03;0.90;99.90
3312;DHT22;1668;49.648;8.570;2022-12-20T03:49:30;0.90;99.90
3312;DHT22;1668;49.648;8.570;2022-12-20T03:51:58;0.90;99.90
3312;DHT22;1668;49.648;8.570;2022-12-20T03:54:25;0.90;99.90
3312;DHT22;1668;49.648;8.570;2022-12-20T03:56:52;0.90;99.90
3312;DHT22;1668;49.648;8.570;2022-12-20T03:59:18;0.90;99.90
3312;DHT22;1668;49.648;8.570;2022-12-20T04:01:45;0.90;99.90
3312;DHT22;1668;49.648;8.570;2022-12-20T04:04:13;1.00;99.90
3312;DHT22;1668;49.648;8.570;2022-12-20T04:06:40;1.00;99.90
3312;DHT22;1668;49.648;8.570;2022-12-20T04:09:08;1.00;99.90
3312;DHT22;1668;49.648;8.570;2022-12-20T04:11:35;1.00;99.90
3312;DHT22;1668;49.648;8.570;2022-12-20T04:14:02;1.00;99.90
3312;DHT22;1668;49.648;8.570;2022-12-20T04:16:29;1.00;99.90
3312;DHT22;1668;49.648;8.570;2022-12-20T04:18:56;1.00;99.90
3312;DHT22;1668;49.648;8.570;2022-12-20T04:21:25;1.00;99.90
3312;DHT22;1668;49.648;8.570;2022-12-20T04:23:52;1.00;99.90
3312;DHT22;1668;49.648;8.570;2022-12-20T04:26:21;1.00;99.90
3312;DHT22;1668;49.648;8.570;2022-12-20T04:28:47;1.00;99.90
3312;DHT22;1668;49.648;8.570;2022-12-20T04:31:14;1.00;99.90
3312;DHT22;1668;49.648;8.570;2022-12-20T04:33:41;1.00;99.90
3312;DHT22;1668;49.648;8.570;2022-12-20T04:36:08;1.00;99.90
3312;DHT22;1668;49.648;8.570;2022-12-20T04:38:35;1.00;99.90
3312;DHT22;1668;49.648;8.570;2022-12-20T04:41:02;1.00;99.90
3312;DHT22;1668;49.648;8.570;2022-12-20T04:43:30;1.00;99.90
3312;DHT22;1668;49.648;8.570;2022-12-20T04:45:57;1.10;99.90
3312;DHT22;1668;49.648;8.570;2022-12-20T04:48:25;1.10;99.90
3312;DHT22;1668;49.648;8.570;2022-12-20T04:50:53;1.20;99.90
3312;DHT22;1668;49.648;8.570;2022-12-20T04:53:21;1.20;99.90
3312;DHT22;1668;49.648;8.570;2022-12-20T04:56:23;1.10;99.90
3312;DHT22;1668;49.648;8.570;2022-12-20T04:58:52;1.10;99.90
3312;DHT22;1668;49.648;8.570;2022-12-20T05:01:19;1.10;99.90
3312;DHT22;1668;49.648;8.570;2022-12-20T05:03:47;1.10;99.90
3312;DHT22;1668;49.648;8.570;2022-12-20T05:06:15;1.10;99.90
3312;DHT22;1668;49.648;8.570;2022-12-20T05:08:42;1.10;99.90
3312;DHT22;1668;49.648;8.570;2022-12-20T05:11:09;1.10;99.90
3312;DHT22;1668;49.648;8.570;2022-12-20T05:13:36;1.10;99.90
3312;DHT22;1668;49.648;8.570;2022-12-20T05:16:05;1.10;99.90
3312;DHT22;1668;49.648;8.570;2022-12-20T05:18:31;1.10;99.90
3312;DHT22;1668;49.648;8.570;2022-12-20T05:20:59;1.10;99.90
3312;DHT22;1668;49.648;8.570;2022-12-20T05:23:43;1.10;99.90
3312;DHT22;1668;49.648;8.570;2022-12-20T05:26:29;1.10;99.90
3312;DHT22;1668;49.648;8.570;2022-12-20T05:28:56;1.20;99.90
3312;DHT22;1668;49.648;8.570;2022-12-20T05:31:24;1.20;99.90
3312;DHT22;1668;49.648;8.570;2022-12-20T05:33:51;1.20;99.90
3312;DHT22;1668;49.648;8.570;2022-12-20T05:36:18;1.20;99.90
3312;DHT22;1668;49.648;8.570;2022-12-20T05:38:45;1.20;99.90
3312;DHT22;1668;49.648;8.570;2022-12-20T05:41:12;1.20;99.90
3312;DHT22;1668;49.648;8.570;2022-12-20T05:43:39;1.20;99.90
3312;DHT22;1668;49.648;8.570;2022-12-20T05:46:06;1.20;99.90
3312;DHT22;1668;49.648;8.570;2022-12-20T05:48:34;1.20;99.90
3312;DHT22;1668;49.648;8.570;2022-12-20T05:51:00;1.20;99.90
3312;DHT22;1668;49.648;8.570;2022-12-20T05:53:27;1.20;99.90
3312;DHT22;1668;49.648;8.570;2022-12-20T05:55:54;1.20;99.90
3312;DHT22;1668;49.648;8.570;2022-12-20T05:58:21;1.20;99.90
3312;DHT22;1668;49.648;8.570;2022-12-20T06:00:48;1.20;99.90
3312;DHT22;1668;49.648;8.570;2022-12-20T06:03:15;1.20;99.90
3312;DHT22;1668;49.648;8.570;2022-12-20T06:05:44;1.20;99.90
3312;DHT22;1668;49.648;8.570;2022-12-20T06:08:11;1.20;99.90
3312;DHT22;1668;49.648;8.570;2022-12-20T06:10:39;1.20;99.90
3312;DHT22;1668;49.648;8.570;2022-12-20T06:13:07;1.20;99.90
3312;DHT22;1668;49.648;8.570;2022-12-20T06:15:35;1.20;99.90
3312;DHT22;1668;49.648;8.570;2022-12-20T06:18:02;1.20;99.90
3312;DHT22;1668;49.648;8.570;2022-12-20T06:20:30;1.20;99.90
3312;DHT22;1668;49.648;8.570;2022-12-20T06:22:59;1.20;99.90
3312;DHT22;1668;49.648;8.570;2022-12-20T06:25:26;1.20;99.90
3312;DHT22;1668;49.648;8.570;2022-12-20T06:27:53;1.20;99.90
3312;DHT22;1668;49.648;8.570;2022-12-20T06:30:20;1.20;99.90
3312;DHT22;1668;49.648;8.570;2022-12-20T06:32:46;1.30;99.90
3312;DHT22;1668;49.648;8.570;2022-12-20T06:35:13;1.30;99.90
3312;DHT22;1668;49.648;8.570;2022-12-20T06:37:42;1.30;99.90
3312;DHT22;1668;49.648;8.570;2022-12-20T06:40:11;1.40;99.90
3312;DHT22;1668;49.648;8.570;2022-12-20T06:42:39;1.40;99.90
3312;DHT22;1668;49.648;8.570;2022-12-20T06:45:06;1.50;99.90
3312;DHT22;1668;49.648;8.570;2022-12-20T06:47:33;1.60;99.90
3312;DHT22;1668;49.648;8.570;2022-12-20T06:50:00;1.60;99.90
3312;DHT22;1668;49.648;8.570;2022-12-20T06:52:27;1.80;99.90
3312;DHT22;1668;49.648;8.570;2022-12-20T06:54:53;2.00;99.90
3312;DHT22;1668;49.648;8.570;2022-12-20T06:57:22;2.30;99.90
3312;DHT22;1668;49.648;8.570;2022-12-20T06:59:49;2.40;99.90
3312;DHT22;1668;49.648;8.570;2022-12-20T07:02:15;2.50;99.90
3312;DHT22;1668;49.648;8.570;2022-12-20T07:04:42;2.40;99.90
3312;DHT22;1668;49.648;8.570;2022-12-20T07:07:11;2.50;99.90
3312;DHT22;1668;49.648;8.570;2022-12-20T07:09:37;2.70;99.90
3312;DHT22;1668;49.648;8.570;2022-12-20T07:12:06;2.70;99.90
3312;DHT22;1668;49.648;8.570;2022-12-20T07:14:34;2.80;99.90
3312;DHT22;1668;49.648;8.570;2022-12-20T07:17:01;2.90;99.90
3312;DHT22;1668;49.648;8.570;2022-12-20T07:19:28;2.90;99.90
3312;DHT22;1668;49.648;8.570;2022-12-20T07:21:55;3.00;99.90
3312;DHT22;1668;49.648;8.570;2022-12-20T07:24:22;2.90;99.90
3312;DHT22;1668;49.648;8.570;2022-12-20T07:26:49;2.90;99.90
3312;DHT22;1668;49.648;8.570;2022-12-20T07:29:15;2.80;99.90
3312;DHT22;1668;49.648;8.570;2022-12-20T07:31:43;2.80;99.90
3312;DHT22;1668;49.648;8.570;2022-12-20T07:34:10;2.80;99.90
3312;DHT22;1668;49.648;8.570;2022-12-20T07:36:37;2.70;99.90
3312;DHT22;1668;49.648;8.570;2022-12-20T07:39:04;2.80;99.90
3312;DHT22;1668;49.648;8.570;2022-12-20T07:41:31;2.80;99.90
3312;DHT22;1668;49.648;8.570;2022-12-20T07:43:58;2.80;99.90
3312;DHT22;1668;49.648;8.570;2022-12-20T07:46:25;2.80;99.90
3312;DHT22;1668;49.648;8.570;2022-12-20T07:48:53;2.80;99.90
3312;DHT22;1668;49.648;8.570;2022-12-20T07:51:24;2.80;99.90
3312;DHT22;1668;49.648;8.570;2022-12-20T07:53:57;2.80;99.90
3312;DHT22;1668;49.648;8.570;2022-12-20T07:56:24;2.80;99.90
3312;DHT22;1668;49.648;8.570;2022-12-20T07:58:54;2.80;99.90
3312;DHT22;1668;49.648;8.570;2022-12-20T08:01:23;2.80;99.90
3312;DHT22;1668;49.648;8.570;2022-12-20T08:03:54;2.80;99.90
3312;DHT22;1668;49.648;8.570;2022-12-20T08:06:22;2.80;99.90
3312;DHT22;1668;49.648;8.570;2022-12-20T08:08:52;2.90;99.90
3312;DHT22;1668;49.648;8.570;2022-12-20T08:11:20;2.90;99.90
3312;DHT22;1668;49.648;8.570;2022-12-20T08:13:48;2.90;99.90
3312;DHT22;1668;49.648;8.570;2022-12-20T08:16:15;2.90;99.90
3312;DHT22;1668;49.648;8.570;2022-12-20T08:18:42;2.90;99.90
3312;DHT22;1668;49.648;8.570;2022-12-20T08:21:10;2.90;99.90
3312;DHT22;1668;49.648;8.570;2022-12-20T08:23:37;2.90;99.90
3312;DHT22;1668;49.648;8.570;2022-12-20T08:26:04;2.90;99.90
3312;DHT22;1668;49.648;8.570;2022-12-20T08:28:31;2.90;99.90
3312;DHT22;1668;49.648;8.570;2022-12-20T08:31:02;3.00;99.90
3312;DHT22;1668;49.648;8.570;2022-12-20T08:33:29;3.00;99.90
3312;DHT22;1668;49.648;8.570;2022-12-20T08:35:57;3.00;99.90
3312;DHT22;1668;49.648;8.570;2022-12-20T08:38:26;3.10;99.90
3312;DHT22;1668;49.648;8.570;2022-12-20T08:40:53;3.10;99.90
3312;DHT22;1668;49.648;8.570;2022-12-20T08:43:20;3.30;99.90
3312;DHT22;1668;49.648;8.570;2022-12-20T08:45:51;3.30;99.90
3312;DHT22;1668;49.648;8.570;2022-12-20T08:48:19;3.40;99.90
3312;DHT22;1668;49.648;8.570;2022-12-20T08:50:46;3.50;99.90
3312;DHT22;1668;49.648;8.570;2022-12-20T08:53:12;3.60;99.90
3312;DHT22;1668;49.648;8.570;2022-12-20T08:55:41;3.70;99.90
3312;DHT22;1668;49.648;8.570;2022-12-20T08:58:08;3.70;99.90
3312;DHT22;1668;49.648;8.570;2022-12-20T09:00:35;3.80;99.90
3312;DHT22;1668;49.648;8.570;2022-12-20T09:03:02;3.90;99.90
3312;DHT22;1668;49.648;8.570;2022-12-20T09:05:29;4.00;99.90
3312;DHT22;1668;49.648;8.570;2022-12-20T09:07:56;4.00;99.90
3312;DHT22;1668;49.648;8.570;2022-12-20T09:10:23;4.10;99.90
3312;DHT22;1668;49.648;8.570;2022-12-20T09:12:51;4.10;99.90
3312;DHT22;1668;49.648;8.570;2022-12-20T09:15:18;4.20;99.90
3312;DHT22;1668;49.648;8.570;2022-12-20T09:17:45;4.20;99.90
3312;DHT22;1668;49.648;8.570;2022-12-20T09:20:13;4.30;99.90
3312;DHT22;1668;49.648;8.570;2022-12-20T09:22:40;4.30;99.90
3312;DHT22;1668;49.648;8.570;2022-12-20T09:25:07;4.40;99.90
3312;DHT22;1668;49.648;8.570;2022-12-20T09:27:34;4.50;99.90
3312;DHT22;1668;49.648;8.570;2022-12-20T09:30:03;4.60;99.90
3312;DHT22;1668;49.648;8.570;2022-12-20T09:32:30;4.60;99.90
3312;DHT22;1668;49.648;8.570;2022-12-20T09:34:57;4.60;99.90
3312;DHT22;1668;49.648;8.570;2022-12-20T09:37:23;4.60;99.90
3312;DHT22;1668;49.648;8.570;2022-12-20T09:39:50;4.70;99.90
3312;DHT22;1668;49.648;8.570;2022-12-20T09:42:18;4.70;99.90
3312;DHT22;1668;49.648;8.570;2022-12-20T09:44:47;4.80;99.90
3312;DHT22;1668;49.648;8.570;2022-12-20T09:47:18;4.80;99.90
3312;DHT22;1668;49.648;8.570;2022-12-20T09:49:48;4.90;99.90
3312;DHT22;1668;49.648;8.570;2022-12-20T09:52:29;5.00;99.90
3312;DHT22;1668;49.648;8.570;2022-12-20T09:55:09;5.10;99.90
3312;DHT22;1668;49.648;8.570;2022-12-20T09:57:46;5.20;99.90
3312;DHT22;1668;49.648;8.570;2022-12-20T10:00:17;5.30;99.90
3312;DHT22;1668;49.648;8.570;2022-12-20T10:02:45;5.30;99.90
3312;DHT22;1668;49.648;8.570;2022-12-20T10:05:15;5.30;99.90
3312;DHT22;1668;49.648;8.570;2022-12-20T10:07:51;5.40;99.90
3312;DHT22;1668;49.648;8.570;2022-12-20T10:10:40;5.50;99.90
3312;DHT22;1668;49.648;8.570;2022-12-20T10:13:19;5.50;99.90
3312;DHT22;1668;49.648;8.570;2022-12-20T10:15:51;5.50;99.90
3312;DHT22;1668;49.648;8.570;2022-12-20T10:18:36;5.50;99.90
3312;DHT22;1668;49.648;8.570;2022-12-20T10:21:09;5.50;99.90
3312;DHT22;1668;49.648;8.570;2022-12-20T10:23:41;5.50;99.90
3312;DHT22;1668;49.648;8.570;2022-12-20T10:26:10;5.50;99.90
3312;DHT22;1668;49.648;8.570;2022-12-20T10:28:38;5.50;99.90
3312;DHT22;1668;49.648;8.570;2022-12-20T10:31:07;5.50;99.90
3312;DHT22;1668;49.648;8.570;2022-12-20T10:33:35;5.50;99.90
3312;DHT22;1668;49.648;8.570;2022-12-20T10:36:20;5.60;99.90
3312;DHT22;1668;49.648;8.570;2022-12-20T10:38:48;5.60;99.90
3312;DHT22;1668;49.648;8.570;2022-12-20T10:41:18;5.60;99.90
3312;DHT22;1668;49.648;8.570;2022-12-20T10:43:47;5.70;99.90
3312;DHT22;1668;49.648;8.570;2022-12-20T10:46:15;5.70;99.90
3312;DHT22;1668;49.648;8.570;2022-12-20T10:48:45;5.80;99.90
3312;DHT22;1668;49.648;8.570;2022-12-20T10:51:15;5.90;99.90
3312;DHT22;1668;49.648;8.570;2022-12-20T10:53:54;5.80;99.90
3312;DHT22;1668;49.648;8.570;2022-12-20T10:56:23;5.90;99.90
3312;DHT22;1668;49.648;8.570;2022-12-20T10:58:54;5.90;99.90
3312;DHT22;1668;49.648;8.570;2022-12-20T11:01:24;6.00;99.90
3312;DHT22;1668;49.648;8.570;2022-12-20T11:03:56;6.10;99.90
3312;DHT22;1668;49.648;8.570;2022-12-20T11:06:26;6.20;99.90
3312;DHT22;1668;49.648;8.570;2022-12-20T11:08:53;6.30;99.90
3312;DHT22;1668;49.648;8.570;2022-12-20T11:11:21;6.30;99.90
3312;DHT22;1668;49.648;8.570;2022-12-20T11:13:50;6.40;99.90
3312;DHT22;1668;49.648;8.570;2022-12-20T11:16:34;6.40;99.90
3312;DHT22;1668;49.648;8.570;2022-12-20T11:19:21;6.60;99.90
3312;DHT22;1668;49.648;8.570;2022-12-20T11:21:57;6.60;99.90
3312;DHT22;1668;49.648;8.570;2022-12-20T11:24:32;6.70;99.90
3312;DHT22;1668;49.648;8.570;2022-12-20T11:27:11;6.70;99.90
3312;DHT22;1668;49.648;8.570;2022-12-20T11:30:08;6.70;99.90
3312;DHT22;1668;49.648;8.570;2022-12-20T11:33:00;6.70;99.90
3312;DHT22;1668;49.648;8.570;2022-12-20T11:35:40;6.80;99.90
3312;DHT22;1668;49.648;8.570;2022-12-20T11:38:16;6.70;99.90
3312;DHT22;1668;49.648;8.570;2022-12-20T11:40:50;6.70;99.90
3312;DHT22;1668;49.648;8.570;2022-12-20T11:43:49;6.60;99.90
3312;DHT22;1668;49.648;8.570;2022-12-20T11:46:29;6.60;99.90
3312;DHT22;1668;49.648;8.570;2022-12-20T11:52:18;6.50;99.90
3312;DHT22;1668;49.648;8.570;2022-12-20T11:54:52;6.50;99.90
3312;DHT22;1668;49.648;8.570;2022-12-20T11:57:26;6.50;99.90
3312;DHT22;1668;49.648;8.570;2022-12-20T11:59:57;6.50;99.90
3312;DHT22;1668;49.648;8.570;2022-12-20T12:02:28;6.50;99.90
3312;DHT22;1668;49.648;8.570;2022-12-20T12:05:00;6.50;99.90
3312;DHT22;1668;49.648;8.570;2022-12-20T12:07:31;6.50;99.90
3312;DHT22;1668;49.648;8.570;2022-12-20T12:10:01;6.40;99.90
3312;DHT22;1668;49.648;8.570;2022-12-20T12:12:39;6.40;99.90
3312;DHT22;1668;49.648;8.570;2022-12-20T12:15:20;6.40;99.90
3312;DHT22;1668;49.648;8.570;2022-12-20T12:17:59;6.40;99.90
3312;DHT22;1668;49.648;8.570;2022-12-20T12:20:34;6.40;99.90
3312;DHT22;1668;49.648;8.570;2022-12-20T12:23:11;6.40;99.90
3312;DHT22;1668;49.648;8.570;2022-12-20T12:25:41;6.40;99.90
3312;DHT22;1668;49.648;8.570;2022-12-20T12:28:10;6.40;99.90
3312;DHT22;1668;49.648;8.570;2022-12-20T12:30:42;6.50;99.90
3312;DHT22;1668;49.648;8.570;2022-12-20T12:33:14;6.40;99.90
3312;DHT22;1668;49.648;8.570;2022-12-20T12:35:51;6.40;99.90
3312;DHT22;1668;49.648;8.570;2022-12-20T12:38:41;6.50;99.90
3312;DHT22;1668;49.648;8.570;2022-12-20T12:41:30;6.50;99.90
3312;DHT22;1668;49.648;8.570;2022-12-20T12:44:04;6.50;99.90
3312;DHT22;1668;49.648;8.570;2022-12-20T12:46:53;6.50;99.90
3312;DHT22;1668;49.648;8.570;2022-12-20T12:49:26;6.60;99.90
3312;DHT22;1668;49.648;8.570;2022-12-20T12:51:56;6.60;99.90
3312;DHT22;1668;49.648;8.570;2022-12-20T12:54:27;6.60;99.90
3312;DHT22;1668;49.648;8.570;2022-12-20T12:56:59;6.70;99.90
3312;DHT22;1668;49.648;8.570;2022-12-20T12:59:48;6.80;99.90
3312;DHT22;1668;49.648;8.570;2022-12-20T13:02:48;6.80;99.90
3312;DHT22;1668;49.648;8.570;2022-12-20T13:05:33;6.80;99.90
3312;DHT22;1668;49.648;8.570;2022-12-20T13:08:00;6.80;99.90
3312;DHT22;1668;49.648;8.570;2022-12-20T13:10:58;6.80;99.90
3312;DHT22;1668;49.648;8.570;2022-12-20T13:13:25;6.80;99.90
3312;DHT22;1668;49.648;8.570;2022-12-20T13:16:12;6.90;99.90
3312;DHT22;1668;49.648;8.570;2022-12-20T13:19:14;6.90;99.90
3312;DHT22;1668;49.648;8.570;2022-12-20T13:21:43;7.00;99.90
3312;DHT22;1668;49.648;8.570;2022-12-20T13:24:39;7.00;99.90
3312;DHT22;1668;49.648;8.570;2022-12-20T13:30:24;7.00;99.90
3312;DHT22;1668;49.648;8.570;2022-12-20T13:33:17;7.00;99.90
3312;DHT22;1668;49.648;8.570;2022-12-20T13:35:59;7.10;99.90
3312;DHT22;1668;49.648;8.570;2022-12-20T13:38:48;7.20;99.90
3312;DHT22;1668;49.648;8.570;2022-12-20T13:41:35;7.20;99.90
3312;DHT22;1668;49.648;8.570;2022-12-20T13:47:03;7.20;99.90
3312;DHT22;1668;49.648;8.570;2022-12-20T13:49:35;7.30;99.90
3312;DHT22;1668;49.648;8.570;2022-12-20T13:52:20;7.30;99.90
3312;DHT22;1668;49.648;8.570;2022-12-20T13:54:51;7.20;99.90
3312;DHT22;1668;49.648;8.570;2022-12-20T13:57:26;7.20;99.90
3312;DHT22;1668;49.648;8.570;2022-12-20T13:59:59;7.20;99.90
3312;DHT22;1668;49.648;8.570;2022-12-20T14:02:28;7.10;99.90
3312;DHT22;1668;49.648;8.570;2022-12-20T14:04:59;7.00;99.90
3312;DHT22;1668;49.648;8.570;2022-12-20T14:07:28;6.90;99.90
3312;DHT22;1668;49.648;8.570;2022-12-20T14:09:58;6.90;99.90
3312;DHT22;1668;49.648;8.570;2022-12-20T14:12:26;6.80;99.90
3312;DHT22;1668;49.648;8.570;2022-12-20T14:14:55;6.80;99.90
3312;DHT22;1668;49.648;8.570;2022-12-20T14:17:24;6.70;99.90
3312;DHT22;1668;49.648;8.570;2022-12-20T14:20:05;6.70;99.90
3312;DHT22;1668;49.648;8.570;2022-12-20T14:22:41;6.70;99.90
3312;DHT22;1668;49.648;8.570;2022-12-20T14:25:13;6.60;99.90
3312;DHT22;1668;49.648;8.570;2022-12-20T14:27:42;6.60;99.90
3312;DHT22;1668;49.648;8.570;2022-12-20T14:33:03;6.70;99.90
3312;DHT22;1668;49.648;8.570;2022-12-20T14:35:30;6.70;99.90
3312;DHT22;1668;49.648;8.570;2022-12-20T14:37:58;6.80;99.90
3312;DHT22;1668;49.648;8.570;2022-12-20T14:40:26;6.80;99.90
3312;DHT22;1668;49.648;8.570;2022-12-20T14:42:55;6.80;99.90
3312;DHT22;1668;49.648;8.570;2022-12-20T14:45:24;6.90;99.90
3312;DHT22;1668;49.648;8.570;2022-12-20T14:47:59;6.90;99.90
3312;DHT22;1668;49.648;8.570;2022-12-20T14:50:31;6.90;99.90
3312;DHT22;1668;49.648;8.570;2022-12-20T14:53:00;6.90;99.90
3312;DHT22;1668;49.648;8.570;2022-12-20T14:55:32;6.90;99.90
3312;DHT22;1668;49.648;8.570;2022-12-20T14:58:05;6.90;99.90
3312;DHT22;1668;49.648;8.570;2022-12-20T15:00:56;6.90;99.90
3312;DHT22;1668;49.648;8.570;2022-12-20T15:03:23;7.00;99.90
3312;DHT22;1668;49.648;8.570;2022-12-20T15:05:52;6.90;99.90
3312;DHT22;1668;49.648;8.570;2022-12-20T15:08:22;6.90;99.90
3312;DHT22;1668;49.648;8.570;2022-12-20T15:10:58;6.90;99.90
3312;DHT22;1668;49.648;8.570;2022-12-20T15:13:30;6.90;99.90
3312;DHT22;1668;49.648;8.570;2022-12-20T15:15:58;6.90;99.90
3312;DHT22;1668;49.648;8.570;2022-12-20T15:18:25;6.80;99.90
3312;DHT22;1668;49.648;8.570;2022-12-20T15:21:03;6.80;99.90
3312;DHT22;1668;49.648;8.570;2022-12-20T15:23:31;6.90;99.90
3312;DHT22;1668;49.648;8.570;2022-12-20T15:25:59;6.90;99.90
3312;DHT22;1668;49.648;8.570;2022-12-20T15:28:26;6.90;99.90
3312;DHT22;1668;49.648;8.570;2022-12-20T15:30:53;6.90;99.90
3312;DHT22;1668;49.648;8.570;2022-12-20T15:33:22;6.80;99.90
3312;DHT22;1668;49.648;8.570;2022-12-20T15:35:49;6.80;99.90
3312;DHT22;1668;49.648;8.570;2022-12-20T15:38:20;6.80;99.90
3312;DHT22;1668;49.648;8.570;2022-12-20T15:40:51;6.90;99.90
3312;DHT22;1668;49.648;8.570;2022-12-20T15:43:20;6.90;99.90
3312;DHT22;1668;49.648;8.570;2022-12-20T15:45:50;6.80;99.90
3312;DHT22;1668;49.648;8.570;2022-12-20T15:48:20;6.90;99.90
3312;DHT22;1668;49.648;8.570;2022-12-20T15:50:50;6.90;99.90
3312;DHT22;1668;49.648;8.570;2022-12-20T15:53:21;6.90;99.90
3312;DHT22;1668;49.648;8.570;2022-12-20T15:55:50;6.90;99.90
3312;DHT22;1668;49.648;8.570;2022-12-20T15:58:17;6.90;99.90
3312;DHT22;1668;49.648;8.570;2022-12-20T16:00:44;6.90;99.90
3312;DHT22;1668;49.648;8.570;2022-12-20T16:03:15;6.90;99.90
3312;DHT22;1668;49.648;8.570;2022-12-20T16:05:46;6.90;99.90
3312;DHT22;1668;49.648;8.570;2022-12-20T16:08:16;6.90;99.90
3312;DHT22;1668;49.648;8.570;2022-12-20T16:10:44;7.00;99.90
3312;DHT22;1668;49.648;8.570;2022-12-20T16:13:14;6.90;99.90
3312;DHT22;1668;49.648;8.570;2022-12-20T16:15:41;6.90;99.90
3312;DHT22;1668;49.648;8.570;2022-12-20T16:18:09;6.90;99.90
3312;DHT22;1668;49.648;8.570;2022-12-20T16:20:36;6.90;99.90
3312;DHT22;1668;49.648;8.570;2022-12-20T16:23:03;6.90;99.90
3312;DHT22;1668;49.648;8.570;2022-12-20T16:25:34;6.90;99.90
3312;DHT22;1668;49.648;8.570;2022-12-20T16:28:03;6.90;99.90
3312;DHT22;1668;49.648;8.570;2022-12-20T16:30:30;7.00;99.90
3312;DHT22;1668;49.648;8.570;2022-12-20T16:32:56;7.00;99.90
3312;DHT22;1668;49.648;8.570;2022-12-20T16:35:30;7.10;99.90
3312;DHT22;1668;49.648;8.570;2022-12-20T16:37:58;7.10;99.90
3312;DHT22;1668;49.648;8.570;2022-12-20T16:40:27;7.00;99.90
3312;DHT22;1668;49.648;8.570;2022-12-20T16:42:55;7.00;99.90
3312;DHT22;1668;49.648;8.570;2022-12-20T16:45:25;6.90;99.90
3312;DHT22;1668;49.648;8.570;2022-12-20T16:47:53;6.90;99.90
3312;DHT22;1668;49.648;8.570;2022-12-20T16:50:22;6.90;99.90
3312;DHT22;1668;49.648;8.570;2022-12-20T16:52:49;6.80;99.90
3312;DHT22;1668;49.648;8.570;2022-12-20T16:55:19;6.80;99.90
3312;DHT22;1668;49.648;8.570;2022-12-20T16:57:46;6.80;99.90